createdAt,value
2022-09-29T00:00:00.964Z,17.80
2022-09-29T00:02:47.334Z,17.80
2022-09-29T00:05:33.853Z,17.70
2022-09-29T00:08:21.014Z,17.70
2022-09-29T00:11:11.423Z,17.70
2022-09-29T00:13:57.205Z,17.70
2022-09-29T00:16:43.510Z,17.60
2022-09-29T00:19:29.461Z,17.60
2022-09-29T00:22:15.642Z,17.60
2022-09-29T00:25:01.320Z,17.50
2022-09-29T00:27:48.438Z,17.50
2022-09-29T00:30:34.122Z,17.50
2022-09-29T00:33:19.806Z,17.50
2022-09-29T00:36:10.406Z,17.40
2022-09-29T00:38:57.470Z,17.40
2022-09-29T00:41:43.514Z,17.30
2022-09-29T00:45:03.503Z,17.30
2022-09-29T00:48:06.447Z,17.30
2022-09-29T00:50:53.816Z,17.30
2022-09-29T00:53:41.289Z,17.30
2022-09-29T00:56:28.102Z,17.30
2022-09-29T00:59:23.840Z,17.30
2022-09-29T01:02:09.813Z,17.20
2022-09-29T01:04:56.314Z,17.20
2022-09-29T01:07:45.842Z,17.30
2022-09-29T01:10:32.545Z,17.30
2022-09-29T01:13:19.815Z,17.30
2022-09-29T01:16:06.274Z,17.30
2022-09-29T01:18:52.801Z,17.30
2022-09-29T01:22:05.810Z,17.20
2022-09-29T01:24:57.252Z,17.10
2022-09-29T01:27:58.685Z,17.00
2022-09-29T01:31:22.652Z,17.10
2022-09-29T01:34:29.736Z,17.10
2022-09-29T01:37:41.275Z,17.10
2022-09-29T01:40:38.722Z,17.00
2022-09-29T01:43:32.181Z,17.00
2022-09-29T01:46:34.551Z,17.00
2022-09-29T01:49:23.774Z,16.90
2022-09-29T01:52:09.272Z,16.90
2022-09-29T01:55:32.254Z,16.90
2022-09-29T01:58:29.232Z,16.90
2022-09-29T02:01:17.144Z,16.90
2022-09-29T02:04:10.325Z,16.80
2022-09-29T02:07:06.094Z,16.80
2022-09-29T02:10:03.065Z,16.80
2022-09-29T02:12:51.652Z,16.80
2022-09-29T02:15:42.982Z,16.90
2022-09-29T02:18:58.090Z,16.90
2022-09-29T02:21:44.742Z,16.90
2022-09-29T02:24:31.610Z,16.80
2022-09-29T02:27:17.829Z,16.70
2022-09-29T02:30:06.515Z,16.80
2022-09-29T02:32:52.446Z,16.80
2022-09-29T02:35:51.394Z,16.70
2022-09-29T02:38:44.089Z,16.70
2022-09-29T02:41:58.036Z,16.70
2022-09-29T02:45:17.882Z,16.70
2022-09-29T02:48:13.361Z,16.70
2022-09-29T02:51:13.936Z,16.80
2022-09-29T02:54:19.334Z,16.80
2022-09-29T02:57:49.130Z,16.80
2022-09-29T03:00:35.260Z,16.70
2022-09-29T03:03:21.824Z,16.70
2022-09-29T03:06:08.897Z,16.60
2022-09-29T03:08:55.962Z,16.60
2022-09-29T03:11:42.528Z,16.50
2022-09-29T03:14:28.097Z,16.50
2022-09-29T03:17:14.242Z,16.50
2022-09-29T03:20:00.540Z,16.40
2022-09-29T03:22:46.401Z,16.40
2022-09-29T03:25:32.656Z,16.40
2022-09-29T03:28:18.665Z,16.40
2022-09-29T03:31:07.316Z,16.50
2022-09-29T03:33:53.561Z,16.50
2022-09-29T03:36:41.506Z,16.50
2022-09-29T03:39:27.719Z,16.50
2022-09-29T03:42:13.530Z,16.50
2022-09-29T03:44:59.630Z,16.40
2022-09-29T03:47:45.830Z,16.40
2022-09-29T03:50:31.572Z,16.40
2022-09-29T03:53:18.681Z,16.50
2022-09-29T03:56:05.357Z,16.40
2022-09-29T03:58:51.542Z,16.40
2022-09-29T04:01:38.344Z,16.40
2022-09-29T04:04:24.620Z,16.40
2022-09-29T04:07:11.246Z,16.30
2022-09-29T04:09:57.134Z,16.40
2022-09-29T04:12:43.234Z,16.40
2022-09-29T04:15:29.578Z,16.40
2022-09-29T04:18:15.469Z,16.40
2022-09-29T04:21:09.516Z,16.50
2022-09-29T04:23:55.648Z,16.40
2022-09-29T04:26:42.004Z,16.40
2022-09-29T04:29:27.526Z,16.40
2022-09-29T04:32:13.650Z,16.50
2022-09-29T04:34:59.968Z,16.50
2022-09-29T04:37:46.118Z,16.40
2022-09-29T04:40:32.680Z,16.40
2022-09-29T04:43:18.605Z,16.50
2022-09-29T04:46:06.803Z,16.50
2022-09-29T04:48:52.642Z,16.50
2022-09-29T04:51:38.238Z,16.50
2022-09-29T04:54:24.137Z,16.50
2022-09-29T04:57:10.716Z,16.50
2022-09-29T04:59:56.680Z,16.60
2022-09-29T05:02:46.512Z,16.50
2022-09-29T05:05:35.548Z,16.50
2022-09-29T05:08:22.045Z,16.50
2022-09-29T05:11:09.679Z,16.50
2022-09-29T05:13:55.278Z,16.50
2022-09-29T05:16:41.443Z,16.40
2022-09-29T05:19:28.830Z,16.50
2022-09-29T05:22:14.305Z,16.50
2022-09-29T05:24:59.775Z,16.50
2022-09-29T05:27:46.545Z,16.40
2022-09-29T05:30:32.281Z,16.40
2022-09-29T05:33:18.478Z,16.40
2022-09-29T05:36:08.938Z,16.30
2022-09-29T05:38:56.174Z,16.30
2022-09-29T05:41:42.149Z,16.30
2022-09-29T05:44:28.735Z,16.30
2022-09-29T05:47:14.933Z,16.30
2022-09-29T05:50:03.266Z,16.30
2022-09-29T05:52:49.424Z,16.40
2022-09-29T05:55:39.179Z,16.50
2022-09-29T05:58:25.460Z,16.50
2022-09-29T06:01:16.225Z,16.60
2022-09-29T06:04:03.644Z,16.60
2022-09-29T06:06:50.026Z,16.80
2022-09-29T06:09:38.907Z,16.80
2022-09-29T06:12:25.430Z,16.80
2022-09-29T06:15:12.506Z,16.90
2022-09-29T06:17:59.508Z,16.90
2022-09-29T06:20:47.901Z,16.90
2022-09-29T06:23:34.739Z,16.90
2022-09-29T06:26:23.924Z,17.00
2022-09-29T06:29:10.258Z,17.00
2022-09-29T06:31:56.219Z,17.00
2022-09-29T06:35:01.123Z,17.00
2022-09-29T06:37:46.754Z,17.00
2022-09-29T06:40:32.761Z,17.00
2022-09-29T06:43:19.342Z,17.10
2022-09-29T06:46:05.833Z,17.10
2022-09-29T06:48:51.592Z,17.10
2022-09-29T06:51:44.931Z,17.10
2022-09-29T06:54:32.446Z,17.10
2022-09-29T06:57:18.955Z,17.00
2022-09-29T07:00:06.794Z,17.00
2022-09-29T07:02:52.576Z,17.00
2022-09-29T07:05:38.463Z,17.00
2022-09-29T07:08:24.276Z,16.90
2022-09-29T07:11:11.545Z,17.10
2022-09-29T07:13:57.334Z,17.20
2022-09-29T07:16:44.718Z,17.40
2022-09-29T07:19:31.275Z,17.50
2022-09-29T07:22:16.895Z,17.70
2022-09-29T07:25:03.687Z,17.80
2022-09-29T07:27:51.142Z,18.00
2022-09-29T07:30:40.766Z,17.90
2022-09-29T07:33:37.974Z,18.00
2022-09-29T07:36:25.437Z,18.30
2022-09-29T07:39:12.145Z,18.40
2022-09-29T07:41:58.851Z,18.50
2022-09-29T07:44:46.995Z,18.60
2022-09-29T07:47:34.732Z,18.70
2022-09-29T07:50:20.652Z,18.60
2022-09-29T07:53:06.618Z,18.70
2022-09-29T07:55:52.706Z,18.50
2022-09-29T07:58:40.251Z,18.50
2022-09-29T08:01:26.156Z,18.30
2022-09-29T08:04:12.364Z,18.40
2022-09-29T08:06:58.544Z,18.50
2022-09-29T08:09:44.439Z,18.50
2022-09-29T08:12:41.097Z,18.40
2022-09-29T08:15:29.801Z,18.40
2022-09-29T08:18:15.425Z,18.50
2022-09-29T08:21:03.803Z,18.70
2022-09-29T08:23:50.151Z,18.80
2022-09-29T08:26:43.476Z,18.90
2022-09-29T08:29:41.393Z,19.10
2022-09-29T08:32:31.949Z,19.10
2022-09-29T08:35:18.640Z,19.00
2022-09-29T08:38:05.531Z,19.00
2022-09-29T08:40:51.859Z,19.00
2022-09-29T08:43:43.422Z,19.10
2022-09-29T08:46:39.736Z,19.00
2022-09-29T08:49:49.627Z,19.00
2022-09-29T08:52:52.376Z,19.10
2022-09-29T08:56:01.341Z,19.30
2022-09-29T08:58:47.691Z,19.60
2022-09-29T09:01:39.225Z,19.70
2022-09-29T09:04:52.595Z,19.80
2022-09-29T09:07:42.115Z,19.80
2022-09-29T09:10:42.788Z,20.00
2022-09-29T09:14:04.469Z,20.00
2022-09-29T09:17:12.161Z,19.90
2022-09-29T09:20:26.370Z,19.90
2022-09-29T09:23:21.729Z,20.10
2022-09-29T09:26:10.433Z,20.20
2022-09-29T09:29:01.728Z,20.30
2022-09-29T09:31:57.579Z,20.40
2022-09-29T09:34:48.644Z,20.70
2022-09-29T09:37:39.853Z,20.90
2022-09-29T09:40:29.776Z,21.00
2022-09-29T09:43:33.940Z,21.30
2022-09-29T09:46:45.597Z,21.30
2022-09-29T09:49:43.504Z,21.30
2022-09-29T09:52:53.916Z,21.20
2022-09-29T09:55:40.839Z,21.00
2022-09-29T09:59:01.975Z,21.00
2022-09-29T10:01:48.196Z,21.10
2022-09-29T10:04:34.100Z,21.10
2022-09-29T10:07:21.213Z,21.20
2022-09-29T10:10:22.297Z,21.20
2022-09-29T10:13:13.615Z,21.30
2022-09-29T10:16:25.222Z,21.30
2022-09-29T10:19:11.463Z,21.30
2022-09-29T10:22:13.518Z,21.20
2022-09-29T10:25:20.245Z,21.40
2022-09-29T10:28:05.931Z,21.60
2022-09-29T10:30:54.988Z,21.70
2022-09-29T10:33:49.115Z,21.70
2022-09-29T10:36:57.457Z,21.70
2022-09-29T10:39:48.068Z,21.90
2022-09-29T10:42:39.047Z,22.10
2022-09-29T10:45:30.147Z,22.30
2022-09-29T10:48:16.717Z,22.30
2022-09-29T10:51:05.527Z,22.10
2022-09-29T10:53:51.142Z,21.90
2022-09-29T10:56:38.142Z,22.00
2022-09-29T10:59:25.388Z,22.20
2022-09-29T11:02:28.288Z,22.50
2022-09-29T11:05:20.342Z,22.60
2022-09-29T11:08:13.265Z,22.70
2022-09-29T11:11:24.403Z,22.90
2022-09-29T11:14:38.910Z,22.90
2022-09-29T11:17:26.657Z,22.70
2022-09-29T11:20:14.946Z,22.80
2022-09-29T11:23:22.501Z,22.90
2022-09-29T11:26:32.441Z,23.00
2022-09-29T11:29:33.068Z,23.10
2022-09-29T11:32:39.180Z,22.90
2022-09-29T11:35:39.996Z,23.20
2022-09-29T11:38:35.989Z,23.20
2022-09-29T11:41:44.866Z,23.40
2022-09-29T11:44:58.667Z,23.70
2022-09-29T11:48:13.584Z,23.90
2022-09-29T11:51:19.897Z,23.70
2022-09-29T11:54:35.578Z,23.60
2022-09-29T11:57:55.565Z,23.30
2022-09-29T12:01:02.049Z,22.90
2022-09-29T12:04:22.409Z,22.10
2022-09-29T12:07:50.672Z,22.20
2022-09-29T12:11:37.282Z,22.40
2022-09-29T12:14:28.293Z,22.50
2022-09-29T12:17:19.072Z,22.30
2022-09-29T12:20:16.525Z,22.50
2022-09-29T12:23:05.825Z,22.70
2022-09-29T12:26:11.732Z,22.80
2022-09-29T12:29:20.571Z,23.40
2022-09-29T12:32:23.600Z,23.10
2022-09-29T12:35:17.402Z,23.10
2022-09-29T12:38:27.893Z,23.10
2022-09-29T12:41:22.834Z,23.10
2022-09-29T12:44:23.442Z,23.10
2022-09-29T12:47:46.953Z,23.80
2022-09-29T12:50:41.670Z,24.10
2022-09-29T12:53:31.729Z,24.80
2022-09-29T12:56:27.300Z,24.80
2022-09-29T12:59:25.323Z,24.60
2022-09-29T13:02:27.638Z,24.30
2022-09-29T13:05:37.034Z,24.20
2022-09-29T13:08:48.642Z,24.10
2022-09-29T13:11:40.137Z,23.80
2022-09-29T13:14:45.009Z,23.60
2022-09-29T13:17:55.462Z,23.50
2022-09-29T13:21:03.110Z,23.20
2022-09-29T13:24:10.597Z,23.30
2022-09-29T13:27:26.255Z,23.30
2022-09-29T13:30:11.572Z,23.80
2022-09-29T13:33:12.182Z,24.20
2022-09-29T13:35:58.568Z,23.80
2022-09-29T13:38:49.181Z,23.60
2022-09-29T13:41:38.903Z,23.40
2022-09-29T13:44:29.488Z,23.40
2022-09-29T13:47:32.704Z,22.80
2022-09-29T13:50:41.801Z,22.60
2022-09-29T13:53:35.338Z,22.40
2022-09-29T13:56:21.926Z,22.40
2022-09-29T13:59:16.014Z,22.50
2022-09-29T14:02:03.196Z,22.20
2022-09-29T14:04:55.784Z,22.30
2022-09-29T14:07:55.801Z,22.30
2022-09-29T14:11:03.718Z,22.60
2022-09-29T14:14:09.167Z,23.10
2022-09-29T14:17:04.569Z,23.90
2022-09-29T14:19:50.597Z,24.20
2022-09-29T14:22:36.587Z,25.60
2022-09-29T14:25:29.711Z,24.50
2022-09-29T14:28:43.400Z,24.10
2022-09-29T14:31:31.709Z,23.70
2022-09-29T14:34:19.205Z,23.30
2022-09-29T14:37:07.170Z,23.10
2022-09-29T14:40:14.323Z,23.30
2022-09-29T14:43:12.290Z,23.60
2022-09-29T14:46:34.399Z,23.70
2022-09-29T14:49:56.641Z,26.00
2022-09-29T14:53:17.588Z,26.50
2022-09-29T14:56:34.656Z,24.50
2022-09-29T15:00:03.092Z,25.10
2022-09-29T15:03:00.169Z,28.40
2022-09-29T15:06:06.747Z,29.50
2022-09-29T15:09:13.761Z,28.90
2022-09-29T15:12:02.934Z,29.40
2022-09-29T15:14:50.256Z,29.60
2022-09-29T15:18:01.225Z,29.00
2022-09-29T15:21:14.525Z,30.40
2022-09-29T15:24:14.524Z,30.50
2022-09-29T15:27:06.066Z,30.80
2022-09-29T15:29:57.559Z,30.70
2022-09-29T15:32:48.294Z,30.60
2022-09-29T15:35:44.486Z,30.40
2022-09-29T15:38:39.855Z,29.40
2022-09-29T15:41:29.170Z,28.50
2022-09-29T15:44:20.192Z,28.40
2022-09-29T15:47:06.545Z,28.70
2022-09-29T15:49:53.689Z,28.60
2022-09-29T15:52:39.586Z,28.50
2022-09-29T15:55:26.290Z,27.70
2022-09-29T15:58:37.210Z,26.80
2022-09-29T16:01:24.006Z,26.10
2022-09-29T16:04:10.334Z,25.60
2022-09-29T16:06:57.024Z,25.50
2022-09-29T16:09:43.589Z,25.80
2022-09-29T16:12:34.903Z,25.80
2022-09-29T16:15:27.292Z,25.20
2022-09-29T16:18:18.839Z,24.90
2022-09-29T16:21:13.599Z,24.50
2022-09-29T16:24:05.900Z,24.50
2022-09-29T16:26:54.263Z,24.40
2022-09-29T16:29:40.823Z,24.10
2022-09-29T16:32:35.264Z,23.90
2022-09-29T16:35:54.533Z,23.70
2022-09-29T16:38:44.825Z,23.60
2022-09-29T16:41:35.536Z,23.30
2022-09-29T16:44:29.848Z,23.10
2022-09-29T16:47:28.884Z,23.00
2022-09-29T16:50:14.661Z,22.80
2022-09-29T16:53:00.617Z,22.70
2022-09-29T16:56:04.834Z,22.60
2022-09-29T16:59:13.347Z,22.50
2022-09-29T17:02:02.687Z,22.40
2022-09-29T17:04:52.505Z,22.20
2022-09-29T17:07:42.126Z,22.20
2022-09-29T17:10:28.967Z,22.00
2022-09-29T17:13:15.867Z,21.90
2022-09-29T17:16:02.201Z,21.80
2022-09-29T17:18:50.801Z,21.70
2022-09-29T17:21:37.252Z,21.60
2022-09-29T17:24:24.219Z,21.60
2022-09-29T17:27:29.450Z,21.50
2022-09-29T17:30:23.243Z,21.40
2022-09-29T17:33:12.996Z,21.40
2022-09-29T17:35:59.257Z,21.30
2022-09-29T17:38:47.898Z,21.30
2022-09-29T17:41:33.973Z,21.20
2022-09-29T17:44:20.202Z,21.10
2022-09-29T17:47:24.258Z,21.10
2022-09-29T17:50:36.495Z,21.00
2022-09-29T17:53:24.510Z,20.90
2022-09-29T17:56:43.679Z,20.90
2022-09-29T17:59:31.924Z,20.80
2022-09-29T18:02:18.045Z,20.70
2022-09-29T18:05:04.519Z,20.60
2022-09-29T18:07:51.681Z,20.50
2022-09-29T18:10:50.669Z,20.50
2022-09-29T18:13:36.477Z,20.40
2022-09-29T18:16:26.446Z,20.40
2022-09-29T18:19:25.569Z,20.40
2022-09-29T18:22:11.667Z,20.40
2022-09-29T18:24:57.305Z,20.40
2022-09-29T18:27:43.826Z,20.40
2022-09-29T18:30:32.643Z,20.40
2022-09-29T18:33:20.580Z,20.40
2022-09-29T18:36:06.673Z,20.40
2022-09-29T18:38:52.517Z,20.20
2022-09-29T18:41:38.553Z,20.10
2022-09-29T18:44:29.420Z,20.00
2022-09-29T18:47:15.256Z,20.10
2022-09-29T18:50:00.885Z,20.10
2022-09-29T18:52:51.983Z,20.10
2022-09-29T18:55:38.855Z,20.00
2022-09-29T18:58:25.221Z,20.00
2022-09-29T19:01:15.614Z,20.00
2022-09-29T19:04:01.518Z,20.00
2022-09-29T19:06:47.524Z,20.00
2022-09-29T19:09:33.812Z,19.90
2022-09-29T19:12:26.840Z,19.90
2022-09-29T19:15:13.394Z,20.00
2022-09-29T19:17:59.536Z,19.90
2022-09-29T19:20:45.509Z,19.90
2022-09-29T19:23:31.787Z,20.00
2022-09-29T19:26:22.346Z,19.90
2022-09-29T19:29:11.648Z,19.80
2022-09-29T19:31:57.701Z,19.80
2022-09-29T19:34:43.370Z,19.80
2022-09-29T19:37:29.775Z,19.80
2022-09-29T19:40:23.848Z,19.80
2022-09-29T19:43:09.943Z,19.80
2022-09-29T19:45:55.603Z,19.70
2022-09-29T19:48:43.360Z,19.50
2022-09-29T19:51:48.602Z,19.40
2022-09-29T19:54:38.025Z,19.30
2022-09-29T19:57:23.675Z,19.30
2022-09-29T20:00:11.950Z,19.20
2022-09-29T20:03:01.464Z,19.20
2022-09-29T20:05:47.898Z,19.20
2022-09-29T20:08:34.880Z,19.20
2022-09-29T20:11:20.947Z,19.10
2022-09-29T20:14:10.823Z,19.00
2022-09-29T20:16:58.363Z,19.10
2022-09-29T20:19:47.209Z,19.00
2022-09-29T20:22:35.338Z,19.00
2022-09-29T20:25:21.612Z,19.00
2022-09-29T20:28:14.397Z,18.80
2022-09-29T20:31:03.143Z,18.80
2022-09-29T20:33:50.269Z,18.80
2022-09-29T20:36:36.484Z,18.80
2022-09-29T20:39:27.756Z,18.80
2022-09-29T20:42:13.951Z,18.70
2022-09-29T20:45:01.084Z,18.70
2022-09-29T20:47:47.777Z,18.70
2022-09-29T20:50:34.054Z,18.60
2022-09-29T20:53:19.841Z,18.60
2022-09-29T20:56:09.874Z,18.50
2022-09-29T20:58:56.481Z,18.50
2022-09-29T21:01:43.810Z,18.50
2022-09-29T21:04:30.106Z,18.40
2022-09-29T21:07:34.399Z,18.50
2022-09-29T21:10:20.690Z,18.50
2022-09-29T21:13:06.516Z,18.50
2022-09-29T21:15:52.592Z,18.50
2022-09-29T21:18:38.619Z,18.40
2022-09-29T21:21:24.996Z,18.50
2022-09-29T21:24:12.332Z,18.40
2022-09-29T21:26:59.027Z,18.40
2022-09-29T21:29:45.377Z,18.40
2022-09-29T21:32:30.781Z,18.30
2022-09-29T21:35:16.448Z,18.30
2022-09-29T21:38:03.255Z,18.30
2022-09-29T21:40:49.747Z,18.30
2022-09-29T21:43:36.890Z,18.30
2022-09-29T21:46:25.143Z,18.30
2022-09-29T21:49:12.839Z,18.30
2022-09-29T21:52:02.012Z,18.30
2022-09-29T21:54:48.009Z,18.40
2022-09-29T21:57:33.844Z,18.30
2022-09-29T22:00:19.925Z,18.30
2022-09-29T22:03:06.790Z,18.30
2022-09-29T22:05:53.495Z,18.30
2022-09-29T22:08:40.213Z,18.30
2022-09-29T22:11:29.419Z,18.20
2022-09-29T22:14:16.788Z,18.30
2022-09-29T22:17:05.659Z,18.20
2022-09-29T22:19:51.360Z,18.30
2022-09-29T22:22:37.532Z,18.30
2022-09-29T22:25:23.924Z,18.30
2022-09-29T22:28:10.742Z,18.30
2022-09-29T22:31:08.649Z,18.30
2022-09-29T22:34:05.230Z,18.30
2022-09-29T22:36:51.378Z,18.30
2022-09-29T22:39:37.709Z,18.20
2022-09-29T22:42:23.656Z,18.20
2022-09-29T22:45:10.613Z,18.20
2022-09-29T22:47:57.725Z,18.20
2022-09-29T22:50:48.529Z,18.20
2022-09-29T22:53:38.201Z,18.20
2022-09-29T22:56:28.904Z,18.10
2022-09-29T22:59:15.834Z,18.00
2022-09-29T23:02:05.520Z,17.90
2022-09-29T23:04:52.018Z,17.90
2022-09-29T23:07:42.056Z,17.90
2022-09-29T23:10:28.294Z,18.00
2022-09-29T23:13:15.472Z,18.00
2022-09-29T23:16:07.038Z,18.00
2022-09-29T23:18:58.873Z,18.10
2022-09-29T23:21:45.284Z,18.00
2022-09-29T23:24:31.046Z,18.00
2022-09-29T23:27:16.570Z,18.00
2022-09-29T23:30:03.237Z,18.00
2022-09-29T23:32:49.620Z,18.00
2022-09-29T23:35:35.368Z,18.00
2022-09-29T23:38:40.081Z,18.00
2022-09-29T23:41:27.431Z,18.00
2022-09-29T23:44:25.733Z,18.00
2022-09-29T23:47:11.770Z,18.00
2022-09-29T23:49:57.983Z,18.00
2022-09-29T23:52:44.211Z,17.90
2022-09-29T23:55:30.638Z,17.80
2022-09-29T23:58:16.522Z,17.90
